createdAt,value
2018-07-26T00:01:58.168Z,97086.00
2018-07-26T00:04:39.675Z,97089.00
2018-07-26T00:07:21.481Z,97092.00
2018-07-26T00:10:04.304Z,97087.00
2018-07-26T00:12:45.902Z,97088.00
2018-07-26T00:15:27.295Z,97090.00
2018-07-26T00:18:08.952Z,97081.00
2018-07-26T00:20:51.616Z,97087.00
2018-07-26T00:23:34.276Z,97090.00
2018-07-26T00:26:15.669Z,97092.00
2018-07-26T00:28:57.163Z,97095.00
2018-07-26T00:31:38.738Z,97090.00
2018-07-26T00:34:20.512Z,97094.00
2018-07-26T00:37:02.123Z,97095.00
2018-07-26T00:39:44.886Z,97093.00
2018-07-26T00:42:26.215Z,97087.00
2018-07-26T00:45:08.643Z,97086.00
2018-07-26T00:47:50.241Z,97077.00
2018-07-26T00:50:31.618Z,97078.00
2018-07-26T00:53:16.833Z,97082.00
2018-07-26T00:55:58.319Z,97087.00
2018-07-26T00:58:40.928Z,97085.00
2018-07-26T01:01:23.037Z,97072.00
2018-07-26T01:04:05.091Z,97074.00
2018-07-26T01:06:46.616Z,97075.00
2018-07-26T01:09:28.604Z,97068.00
2018-07-26T01:12:10.090Z,97072.00
2018-07-26T01:14:52.072Z,97075.00
2018-07-26T01:17:34.176Z,97078.00
2018-07-26T01:20:15.571Z,97078.00
2018-07-26T01:22:57.325Z,97083.00
2018-07-26T01:25:39.321Z,97088.00
2018-07-26T01:28:21.597Z,97091.00
2018-07-26T01:31:04.120Z,97079.00
2018-07-26T01:33:46.747Z,97083.00
2018-07-26T01:36:28.113Z,97082.00
2018-07-26T01:39:10.486Z,97078.00
2018-07-26T01:41:52.750Z,97082.00
2018-07-26T01:44:36.932Z,97080.00
2018-07-26T01:47:18.531Z,97088.00
2018-07-26T01:49:59.983Z,97085.00
2018-07-26T01:52:41.546Z,97088.00
2018-07-26T01:55:22.907Z,97093.00
2018-07-26T01:58:06.943Z,97084.00
2018-07-26T02:04:10.506Z,97079.00
2018-07-26T02:06:53.702Z,97074.00
2018-07-26T02:09:35.227Z,97083.00
2018-07-26T02:12:16.677Z,97080.00
2018-07-26T02:14:58.917Z,97082.00
2018-07-26T02:17:40.431Z,97091.00
2018-07-26T02:20:22.479Z,97089.00
2018-07-26T02:23:05.415Z,97092.00
2018-07-26T02:25:47.490Z,97094.00
2018-07-26T02:28:29.012Z,97083.00
2018-07-26T02:31:11.702Z,97083.00
2018-07-26T02:33:54.265Z,97088.00
2018-07-26T02:36:35.650Z,97092.00
2018-07-26T02:39:17.433Z,97091.00
2018-07-26T02:41:58.786Z,97088.00
2018-07-26T02:44:40.613Z,97092.00
2018-07-26T02:47:23.142Z,97094.00
2018-07-26T02:50:04.552Z,97097.00
2018-07-26T02:52:46.011Z,97092.00
2018-07-26T02:55:27.992Z,97095.00
2018-07-26T02:58:09.459Z,97106.00
2018-07-26T03:00:51.591Z,97100.00
2018-07-26T03:03:33.857Z,97092.00
2018-07-26T03:06:16.310Z,97098.00
2018-07-26T03:08:57.639Z,97104.00
2018-07-26T03:11:39.044Z,97096.00
2018-07-26T03:14:22.532Z,97108.00
2018-07-26T03:17:04.226Z,97096.00
2018-07-26T03:19:45.757Z,97097.00
2018-07-26T03:22:28.080Z,97107.00
2018-07-26T03:25:09.287Z,97117.00
2018-07-26T03:27:51.596Z,97124.00
2018-07-26T03:30:33.084Z,97118.00
2018-07-26T03:33:14.450Z,97124.00
2018-07-26T03:35:56.446Z,97122.00
2018-07-26T03:38:41.348Z,97127.00
2018-07-26T03:41:24.367Z,97128.00
2018-07-26T03:44:06.380Z,97125.00
2018-07-26T03:46:47.891Z,97129.00
2018-07-26T03:49:29.619Z,97131.00
2018-07-26T03:52:11.008Z,97132.00
2018-07-26T03:54:54.476Z,97127.00
2018-07-26T03:57:40.943Z,97127.00
2018-07-26T04:00:24.426Z,97133.00
2018-07-26T04:03:06.539Z,97130.00
2018-07-26T04:05:48.751Z,97128.00
2018-07-26T04:08:31.186Z,97133.00
2018-07-26T04:11:13.491Z,97134.00
2018-07-26T04:13:56.116Z,97131.00
2018-07-26T04:16:37.552Z,97140.00
2018-07-26T04:19:18.908Z,97143.00
2018-07-26T04:22:01.412Z,97147.00
2018-07-26T04:24:42.811Z,97146.00
2018-07-26T04:27:25.408Z,97152.00
2018-07-26T04:30:11.144Z,97143.00
2018-07-26T04:32:54.473Z,97147.00
2018-07-26T04:35:36.292Z,97156.00
2018-07-26T04:38:17.876Z,97157.00
2018-07-26T04:41:00.788Z,97152.00
2018-07-26T04:43:42.267Z,97159.00
2018-07-26T04:46:25.636Z,97160.00
2018-07-26T04:49:07.147Z,97156.00
2018-07-26T04:51:48.969Z,97165.00
2018-07-26T04:54:32.073Z,97167.00
2018-07-26T04:57:13.330Z,97161.00
2018-07-26T04:59:56.016Z,97162.00
2018-07-26T05:02:38.380Z,97159.00
2018-07-26T05:05:19.816Z,97166.00
2018-07-26T05:08:01.750Z,97165.00
2018-07-26T05:10:43.143Z,97167.00
2018-07-26T05:13:25.304Z,97170.00
2018-07-26T05:16:06.892Z,97173.00
2018-07-26T05:18:48.330Z,97175.00
2018-07-26T05:21:30.128Z,97183.00
2018-07-26T05:24:11.775Z,97186.00
2018-07-26T05:26:55.636Z,97183.00
2018-07-26T05:29:37.811Z,97184.00
2018-07-26T05:32:19.206Z,97181.00
2018-07-26T05:35:01.679Z,97180.00
2018-07-26T05:37:42.930Z,97175.00
2018-07-26T05:40:25.748Z,97167.00
2018-07-26T05:43:07.562Z,97171.00
2018-07-26T05:45:49.151Z,97171.00
2018-07-26T05:48:32.288Z,97180.00
2018-07-26T05:51:13.771Z,97180.00
2018-07-26T05:53:56.128Z,97184.00
2018-07-26T05:56:38.675Z,97179.00
2018-07-26T05:59:20.035Z,97185.00
2018-07-26T06:02:01.468Z,97186.00
2018-07-26T06:04:42.885Z,97188.00
2018-07-26T06:07:25.601Z,97192.00
2018-07-26T06:10:08.523Z,97196.00
2018-07-26T06:12:50.119Z,97195.00
2018-07-26T06:15:32.636Z,97192.00
2018-07-26T06:18:14.038Z,97193.00
2018-07-26T06:20:56.967Z,97203.00
2018-07-26T06:23:38.163Z,97198.00
2018-07-26T06:26:19.604Z,97195.00
2018-07-26T06:29:01.652Z,97197.00
2018-07-26T06:31:43.006Z,97205.00
2018-07-26T06:34:25.907Z,97206.00
2018-07-26T06:37:07.635Z,97198.00
2018-07-26T06:39:49.083Z,97196.00
2018-07-26T06:42:31.654Z,97202.00
2018-07-26T06:45:13.017Z,97199.00
2018-07-26T06:47:55.628Z,97207.00
2018-07-26T06:50:37.211Z,97208.00
2018-07-26T06:53:18.735Z,97210.00
2018-07-26T06:56:00.208Z,97204.00
2018-07-26T06:58:41.753Z,97213.00
2018-07-26T07:01:25.492Z,97209.00
2018-07-26T07:04:08.040Z,97211.00
2018-07-26T07:06:50.272Z,97219.00
2018-07-26T07:09:31.873Z,97215.00
2018-07-26T07:12:13.705Z,97214.00
2018-07-26T07:14:57.814Z,97221.00
2018-07-26T07:17:39.128Z,97216.00
2018-07-26T07:20:20.160Z,97209.00
2018-07-26T07:23:03.007Z,97204.00
2018-07-26T07:25:44.780Z,97208.00
2018-07-26T07:28:27.219Z,97213.00
2018-07-26T07:31:08.692Z,97213.00
2018-07-26T07:33:50.300Z,97219.00
2018-07-26T07:36:31.940Z,97217.00
2018-07-26T07:39:14.816Z,97211.00
2018-07-26T07:41:57.227Z,97215.00
2018-07-26T07:44:38.570Z,97210.00
2018-07-26T07:47:21.510Z,97220.00
2018-07-26T07:50:03.033Z,97217.00
2018-07-26T07:52:44.452Z,97222.00
2018-07-26T07:55:26.832Z,97224.00
2018-07-26T07:58:08.299Z,97226.00
2018-07-26T08:00:49.999Z,97223.00
2018-07-26T08:03:31.674Z,97229.00
2018-07-26T08:06:13.169Z,97231.00
2018-07-26T08:08:55.341Z,97218.00
2018-07-26T08:11:38.336Z,97225.00
2018-07-26T08:14:19.705Z,97218.00
2018-07-26T08:17:02.405Z,97229.00
2018-07-26T08:19:43.862Z,97237.00
2018-07-26T08:22:25.961Z,97233.00
2018-07-26T08:25:08.573Z,97227.00
2018-07-26T08:27:50.028Z,97241.00
2018-07-26T08:30:31.496Z,97232.00
2018-07-26T08:33:12.929Z,97228.00
2018-07-26T08:35:56.152Z,97234.00
2018-07-26T08:38:37.800Z,97231.00
2018-07-26T08:41:19.345Z,97227.00
2018-07-26T08:44:01.696Z,97231.00
2018-07-26T08:46:43.207Z,97233.00
2018-07-26T08:49:25.605Z,97228.00
2018-07-26T08:52:07.212Z,97222.00
2018-07-26T08:54:49.107Z,97230.00
2018-07-26T08:57:31.284Z,97222.00
2018-07-26T09:00:16.285Z,97225.00
2018-07-26T09:02:57.859Z,97237.00
2018-07-26T09:05:39.214Z,97241.00
2018-07-26T09:08:21.801Z,97246.00
2018-07-26T09:11:04.557Z,97234.00
2018-07-26T09:13:46.168Z,97235.00
2018-07-26T09:16:27.706Z,97236.00
2018-07-26T09:19:09.252Z,97237.00
2018-07-26T09:21:51.513Z,97238.00
2018-07-26T09:24:33.160Z,97244.00
2018-07-26T09:27:14.504Z,97241.00
2018-07-26T09:29:56.576Z,97221.00
2018-07-26T09:32:39.877Z,97231.00
2018-07-26T09:35:22.788Z,97230.00
2018-07-26T09:38:04.362Z,97237.00
2018-07-26T09:40:45.757Z,97237.00
2018-07-26T09:43:27.177Z,97234.00
2018-07-26T09:46:08.758Z,97234.00
2018-07-26T09:48:51.791Z,97235.00
2018-07-26T09:51:34.882Z,97238.00
2018-07-26T09:54:17.255Z,97231.00
2018-07-26T09:56:58.648Z,97237.00
2018-07-26T09:59:41.613Z,97237.00
2018-07-26T10:02:24.444Z,97231.00
2018-07-26T10:05:06.737Z,97235.00
2018-07-26T10:07:48.702Z,97229.00
2018-07-26T10:10:31.716Z,97230.00
2018-07-26T10:13:13.322Z,97238.00
2018-07-26T10:15:55.632Z,97236.00
2018-07-26T10:18:40.900Z,97232.00
2018-07-26T10:21:24.526Z,97228.00
2018-07-26T10:24:06.018Z,97242.00
2018-07-26T10:26:47.273Z,97233.00
2018-07-26T10:29:28.771Z,97227.00
2018-07-26T10:32:10.445Z,97228.00
2018-07-26T10:34:54.529Z,97223.00
2018-07-26T10:37:36.170Z,97228.00
2018-07-26T10:40:17.625Z,97220.00
2018-07-26T10:42:59.648Z,97219.00
2018-07-26T10:45:41.140Z,97213.00
2018-07-26T10:48:24.692Z,97207.00
2018-07-26T10:51:06.149Z,97213.00
2018-07-26T10:53:47.568Z,97218.00
2018-07-26T10:56:29.314Z,97218.00
2018-07-26T10:59:10.649Z,97215.00
2018-07-26T11:01:54.492Z,97211.00
2018-07-26T11:04:35.925Z,97214.00
2018-07-26T11:07:17.444Z,97218.00
2018-07-26T11:09:59.806Z,97210.00
2018-07-26T11:12:41.189Z,97209.00
2018-07-26T11:15:29.575Z,97216.00
2018-07-26T11:18:11.517Z,97216.00
2018-07-26T11:20:54.831Z,97206.00
2018-07-26T11:23:36.213Z,97204.00
2018-07-26T11:26:17.748Z,97199.00
2018-07-26T11:28:59.041Z,97204.00
2018-07-26T11:31:40.450Z,97199.00
2018-07-26T11:34:23.096Z,97206.00
2018-07-26T11:37:05.113Z,97208.00
2018-07-26T11:39:46.710Z,97200.00
2018-07-26T11:42:28.059Z,97199.00
2018-07-26T11:45:10.761Z,97201.00
2018-07-26T11:47:54.728Z,97200.00
2018-07-26T11:50:36.120Z,97198.00
2018-07-26T11:53:17.232Z,97184.00
2018-07-26T11:55:58.577Z,97189.00
2018-07-26T11:58:40.621Z,97188.00
2018-07-26T12:01:23.276Z,97177.00
2018-07-26T12:04:04.846Z,97185.00
2018-07-26T12:06:46.316Z,97184.00
2018-07-26T12:09:27.872Z,97186.00
2018-07-26T12:12:10.546Z,97180.00
2018-07-26T12:14:53.134Z,97190.00
2018-07-26T12:17:34.650Z,97184.00
2018-07-26T12:20:16.077Z,97184.00
2018-07-26T12:22:57.548Z,97172.00
2018-07-26T12:25:38.941Z,97170.00
2018-07-26T12:28:21.828Z,97166.00
2018-07-26T12:31:04.368Z,97169.00
2018-07-26T12:33:45.645Z,97157.00
2018-07-26T12:36:27.364Z,97160.00
2018-07-26T12:39:11.448Z,97165.00
2018-07-26T12:41:55.690Z,97166.00
2018-07-26T12:44:37.016Z,97159.00
2018-07-26T12:47:18.422Z,97153.00
2018-07-26T12:49:59.987Z,97155.00
2018-07-26T12:52:41.421Z,97152.00
2018-07-26T12:55:24.631Z,97154.00
2018-07-26T12:58:05.925Z,97144.00
2018-07-26T13:00:47.206Z,97140.00
2018-07-26T13:03:28.568Z,97136.00
2018-07-26T13:06:09.948Z,97132.00
2018-07-26T13:08:51.860Z,97138.00
2018-07-26T13:11:34.104Z,97146.00
2018-07-26T13:14:15.517Z,97158.00
2018-07-26T13:16:57.465Z,97153.00
2018-07-26T13:19:38.902Z,97153.00
2018-07-26T13:22:21.658Z,97157.00
2018-07-26T13:25:03.029Z,97152.00
2018-07-26T13:27:44.549Z,97137.00
2018-07-26T13:30:26.687Z,97145.00
2018-07-26T13:33:08.862Z,97150.00
2018-07-26T13:35:50.985Z,97164.00
2018-07-26T13:38:35.169Z,97183.00
2018-07-26T13:41:19.429Z,97186.00
2018-07-26T13:44:01.569Z,97193.00
2018-07-26T13:46:42.964Z,97194.00
2018-07-26T13:49:25.674Z,97196.00
2018-07-26T13:52:07.482Z,97203.00
2018-07-26T13:54:48.880Z,97209.00
2018-07-26T13:57:30.296Z,97214.00
2018-07-26T14:00:14.492Z,97225.00
2018-07-26T14:02:57.452Z,97237.00
2018-07-26T14:05:39.012Z,97221.00
2018-07-26T14:08:21.896Z,97211.00
2018-07-26T14:11:03.331Z,97209.00
2018-07-26T14:13:44.877Z,97219.00
2018-07-26T14:16:27.255Z,97220.00
2018-07-26T14:19:09.773Z,97226.00
2018-07-26T14:21:51.887Z,97213.00
2018-07-26T14:24:33.817Z,97208.00
2018-07-26T14:27:15.272Z,97202.00
2018-07-26T14:29:58.056Z,97206.00
2018-07-26T14:32:39.499Z,97200.00
2018-07-26T14:35:21.773Z,97201.00
2018-07-26T14:38:03.108Z,97194.00
2018-07-26T14:40:44.605Z,97196.00
2018-07-26T14:43:27.242Z,97192.00
2018-07-26T14:46:08.917Z,97201.00
2018-07-26T14:48:50.459Z,97192.00
2018-07-26T14:51:31.907Z,97182.00
2018-07-26T14:54:14.140Z,97180.00
2018-07-26T14:56:56.181Z,97181.00
2018-07-26T14:59:37.558Z,97183.00
2018-07-26T15:02:19.949Z,97182.00
2018-07-26T15:05:01.845Z,97180.00
2018-07-26T15:07:43.272Z,97180.00
2018-07-26T15:10:26.028Z,97183.00
2018-07-26T15:13:07.285Z,97176.00
2018-07-26T15:15:48.726Z,97169.00
2018-07-26T15:18:30.577Z,97173.00
2018-07-26T15:21:12.842Z,97164.00
2018-07-26T15:23:55.787Z,97161.00
2018-07-26T15:26:37.723Z,97167.00
2018-07-26T15:29:19.316Z,97155.00
2018-07-26T15:32:01.399Z,97155.00
2018-07-26T15:34:43.165Z,97159.00
2018-07-26T15:37:25.620Z,97151.00
2018-07-26T15:40:08.065Z,97143.00
2018-07-26T15:42:49.925Z,97140.00
2018-07-26T15:45:32.198Z,97142.00
2018-07-26T15:48:13.774Z,97152.00
2018-07-26T15:50:59.120Z,97153.00
2018-07-26T15:53:41.057Z,97163.00
2018-07-26T15:56:23.375Z,97169.00
2018-07-26T15:59:04.988Z,97171.00
2018-07-26T16:01:46.485Z,97176.00
2018-07-26T16:04:27.705Z,97187.00
2018-07-26T16:07:08.985Z,97188.00
2018-07-26T16:09:51.889Z,97180.00
2018-07-26T16:12:46.098Z,97178.00
2018-07-26T16:15:30.313Z,97175.00
2018-07-26T16:18:15.245Z,97182.00
2018-07-26T16:20:57.356Z,97183.00
2018-07-26T16:23:41.881Z,97195.00
2018-07-26T16:26:23.928Z,97190.00
2018-07-26T16:29:06.545Z,97187.00
2018-07-26T16:31:48.689Z,97189.00
2018-07-26T16:34:31.274Z,97180.00
2018-07-26T16:37:13.090Z,97183.00
2018-07-26T16:39:54.768Z,97183.00
2018-07-26T16:42:36.179Z,97180.00
2018-07-26T16:45:17.589Z,97184.00
2018-07-26T16:47:59.048Z,97180.00
2018-07-26T16:50:40.804Z,97177.00
2018-07-26T16:53:22.591Z,97173.00
2018-07-26T16:56:05.475Z,97177.00
2018-07-26T16:58:47.475Z,97173.00
2018-07-26T17:01:28.926Z,97174.00
2018-07-26T17:04:10.411Z,97174.00
2018-07-26T17:06:52.839Z,97167.00
2018-07-26T17:09:34.900Z,97159.00
2018-07-26T17:12:16.463Z,97172.00
2018-07-26T17:14:57.959Z,97161.00
2018-07-26T17:17:52.983Z,97163.00
2018-07-26T17:20:38.236Z,97164.00
2018-07-26T17:23:20.643Z,97165.00
2018-07-26T17:26:04.128Z,97166.00
2018-07-26T17:28:45.630Z,97172.00
2018-07-26T17:31:27.148Z,97168.00
2018-07-26T17:34:08.640Z,97178.00
2018-07-26T17:36:50.953Z,97166.00
2018-07-26T17:39:33.614Z,97179.00
2018-07-26T17:42:15.245Z,97181.00
2018-07-26T17:44:57.190Z,97179.00
2018-07-26T17:47:38.760Z,97181.00
2018-07-26T17:50:20.677Z,97188.00
2018-07-26T17:53:18.663Z,97188.00
2018-07-26T17:56:00.212Z,97200.00
2018-07-26T17:58:42.987Z,97196.00
2018-07-26T18:01:24.384Z,97206.00
2018-07-26T18:04:06.496Z,97207.00
2018-07-26T18:06:47.954Z,97211.00
2018-07-26T18:09:29.369Z,97209.00
2018-07-26T18:12:11.459Z,97206.00
2018-07-26T18:14:53.023Z,97204.00
2018-07-26T18:17:35.847Z,97202.00
2018-07-26T18:20:17.425Z,97208.00
2018-07-26T18:22:58.999Z,97216.00
2018-07-26T18:25:41.351Z,97214.00
2018-07-26T18:28:22.801Z,97215.00
2018-07-26T18:31:05.390Z,97231.00
2018-07-26T18:33:48.244Z,97212.00
2018-07-26T18:36:29.544Z,97223.00
2018-07-26T18:39:13.433Z,97222.00
2018-07-26T18:41:55.093Z,97223.00
2018-07-26T18:44:37.053Z,97233.00
2018-07-26T18:47:19.812Z,97227.00
2018-07-26T18:50:02.423Z,97219.00
2018-07-26T18:52:44.047Z,97227.00
2018-07-26T18:55:25.452Z,97239.00
2018-07-26T18:58:07.412Z,97240.00
2018-07-26T19:00:49.700Z,97253.00
2018-07-26T19:03:32.347Z,97253.00
2018-07-26T19:06:14.345Z,97252.00
2018-07-26T19:08:57.675Z,97242.00
2018-07-26T19:11:42.209Z,97252.00
2018-07-26T19:14:23.993Z,97238.00
2018-07-26T19:17:06.548Z,97237.00
2018-07-26T19:20:20.365Z,97239.00
2018-07-26T19:23:01.909Z,97245.00
2018-07-26T19:25:45.089Z,97257.00
2018-07-26T19:28:27.060Z,97245.00
2018-07-26T19:31:09.568Z,97241.00
2018-07-26T19:33:51.592Z,97244.00
2018-07-26T19:36:33.055Z,97248.00
2018-07-26T19:39:14.760Z,97256.00
2018-07-26T19:41:56.997Z,97249.00
2018-07-26T19:44:40.209Z,97254.00
2018-07-26T19:47:21.695Z,97254.00
2018-07-26T19:50:03.297Z,97244.00
2018-07-26T19:52:46.128Z,97244.00
2018-07-26T19:55:27.613Z,97240.00
2018-07-26T19:58:09.989Z,97239.00
2018-07-26T20:01:05.560Z,97249.00
2018-07-26T20:03:48.090Z,97256.00
2018-07-26T20:06:29.548Z,97258.00
2018-07-26T20:09:11.936Z,97246.00
2018-07-26T20:12:00.312Z,97252.00
2018-07-26T20:20:34.146Z,97227.00
2018-07-26T20:23:16.534Z,97236.00
2018-07-26T20:25:57.977Z,97234.00
2018-07-26T20:28:43.944Z,97235.00
2018-07-26T20:31:26.364Z,97236.00
2018-07-26T20:34:08.001Z,97237.00
2018-07-26T20:36:49.594Z,97229.00
2018-07-26T20:39:31.011Z,97230.00
2018-07-26T20:42:13.563Z,97229.00
2018-07-26T20:44:54.973Z,97226.00
2018-07-26T20:47:36.379Z,97241.00
2018-07-26T20:50:18.833Z,97232.00
2018-07-26T20:53:00.498Z,97240.00
2018-07-26T20:55:41.958Z,97241.00
2018-07-26T20:58:24.315Z,97241.00
2018-07-26T21:01:05.886Z,97253.00
2018-07-26T21:03:48.498Z,97256.00
2018-07-26T21:06:30.060Z,97257.00
2018-07-26T21:09:13.753Z,97259.00
2018-07-26T21:11:55.335Z,97270.00
2018-07-26T21:14:36.821Z,97272.00
2018-07-26T21:17:18.966Z,97265.00
2018-07-26T21:20:03.483Z,97264.00
2018-07-26T21:22:46.661Z,97263.00
2018-07-26T21:25:28.228Z,97264.00
2018-07-26T21:28:09.853Z,97258.00
2018-07-26T21:30:52.396Z,97249.00
2018-07-26T21:33:33.939Z,97246.00
2018-07-26T21:36:16.772Z,97255.00
2018-07-26T21:38:58.222Z,97248.00
2018-07-26T21:41:40.351Z,97242.00
2018-07-26T21:44:21.746Z,97244.00
2018-07-26T21:47:03.573Z,97246.00
2018-07-26T21:49:49.935Z,97242.00
2018-07-26T21:52:31.455Z,97246.00
2018-07-26T21:55:13.179Z,97238.00
2018-07-26T21:57:55.140Z,97240.00
2018-07-26T22:00:42.071Z,97233.00
2018-07-26T22:03:23.676Z,97236.00
2018-07-26T22:06:06.488Z,97230.00
2018-07-26T22:08:49.888Z,97238.00
2018-07-26T22:11:31.425Z,97238.00
2018-07-26T22:14:12.812Z,97233.00
2018-07-26T22:16:55.005Z,97234.00
2018-07-26T22:19:36.440Z,97233.00
2018-07-26T22:22:19.686Z,97238.00
2018-07-26T22:25:01.624Z,97224.00
2018-07-26T22:27:42.922Z,97220.00
2018-07-26T22:30:26.213Z,97221.00
2018-07-26T22:33:08.692Z,97220.00
2018-07-26T22:35:51.038Z,97219.00
2018-07-26T22:38:33.093Z,97215.00
2018-07-26T22:41:15.137Z,97221.00
2018-07-26T22:43:57.730Z,97219.00
2018-07-26T22:46:38.918Z,97224.00
2018-07-26T22:49:22.602Z,97212.00
2018-07-26T22:52:04.111Z,97220.00
2018-07-26T22:54:45.545Z,97224.00
2018-07-26T22:57:27.334Z,97229.00
2018-07-26T23:00:09.194Z,97236.00
2018-07-26T23:02:52.507Z,97228.00
2018-07-26T23:05:33.917Z,97228.00
2018-07-26T23:08:16.653Z,97231.00
2018-07-26T23:10:58.473Z,97222.00
2018-07-26T23:13:40.000Z,97231.00
2018-07-26T23:16:21.999Z,97232.00
2018-07-26T23:19:04.991Z,97234.00
2018-07-26T23:21:48.651Z,97226.00
2018-07-26T23:24:30.922Z,97212.00
2018-07-26T23:27:12.709Z,97229.00
2018-07-26T23:29:55.113Z,97221.00
2018-07-26T23:32:36.521Z,97224.00
2018-07-26T23:35:17.979Z,97228.00
2018-07-26T23:37:59.613Z,97219.00
2018-07-26T23:40:41.954Z,97228.00
2018-07-26T23:43:24.878Z,97231.00
2018-07-26T23:46:07.309Z,97231.00
2018-07-26T23:48:51.034Z,97228.00
2018-07-26T23:51:33.396Z,97232.00
2018-07-26T23:54:14.876Z,97230.00
2018-07-26T23:56:57.196Z,97231.00
2018-07-26T23:59:38.676Z,97240.00
